Главная страница
METAR-TAF:

METAR-TAF

Аэропорты :

Нджамена, Чад

широта: 12-08N, долгота: 015-02E, высота над уровнем моря: 295 м

Текущие метеонаблюдения

Эта сводка был подготовлена 1 час и 4 минут назад, в 03:00 UTC
Штиль
Температура 31°C
Влажность 26%
Давление 1006 hPa
Видимость: 6000 м

METAR: FTTJ 200300Z 00000KT 6000 NSC 31/09 Q1006 NOSIG

Время: 05:04 (04:04 UTC)

Прогноз

Эта сводка был подготовлена 5 часа и 4 минут назад, в 23:00 UTC
Прогноз действительный с 20-го 00 UTC до 21-го 06 UTC
Ветер 5 Узел переменных направлений
Видимость: 6000 м
временами
С 20-го 05 UTC до 20-го 09 UTC
Видимость: 4000 м
пыль, взвешенная над обширной территорией
временами
С 20-го 16 UTC до 20-го 19 UTC
Видимость: 4000 м
пыль, взвешенная над обширной территорией,

TAF: FTTJ 192300Z 2000/2106 VRB05KT 6000 NSC TEMPO 2005/2009 4000 DU TEMPO 2016/2019 4000 DU

Метеонаблюдения и прогнозы для более 4000 аэропортов (сводки METAR и TAF).

Имеющиеся станции представлены на карте желтыми и красными точками.

Чтобы увидеть название станции, наведите на нее мышь.

Затем щелкните, чтобы увидеть метеонаблюдения и метеопрогнозы.

Управление картой: чтобы увеличить масштаб, щелкните зеленые кнопки с черным крестиком; чтобы уменьшить масштаб, щелкните зеленую кнопку с тире; для просмотра соседних карт щелкайте зеленые стрелки.


METAR-TAF: